sensor_id;sensor_type;location;lat;lon;timestamp;pressure;altitude;pressure_sealevel;temperature;humidity
28935;BME280;16044;52.726;-2.108;2024-03-23T00:54:41;100390.34;;;3.96;100.00
28935;BME280;16044;52.726;-2.108;2024-03-23T00:57:07;100396.81;;;3.93;100.00
28935;BME280;16044;52.726;-2.108;2024-03-23T00:59:36;100391.44;;;3.93;100.00
28935;BME280;16044;52.726;-2.108;2024-03-23T01:02:03;100385.84;;;3.96;100.00
28935;BME280;16044;52.726;-2.108;2024-03-23T01:04:30;100383.16;;;3.96;100.00
28935;BME280;16044;52.726;-2.108;2024-03-23T01:06:56;100379.50;;;3.97;100.00
28935;BME280;16044;52.726;-2.108;2024-03-23T01:09:22;100379.19;;;4.00;100.00
28935;BME280;16044;52.726;-2.108;2024-03-23T01:11:49;100374.53;;;4.02;100.00
28935;BME280;16044;52.726;-2.108;2024-03-23T01:14:15;100360.44;;;4.00;100.00
28935;BME280;16044;52.726;-2.108;2024-03-23T01:16:44;100362.13;;;4.01;100.00
28935;BME280;16044;52.726;-2.108;2024-03-23T01:19:11;100354.22;;;4.00;100.00
28935;BME280;16044;52.726;-2.108;2024-03-23T01:21:37;100348.41;;;3.95;100.00
28935;BME280;16044;52.726;-2.108;2024-03-23T01:24:04;100349.69;;;3.90;100.00
28935;BME280;16044;52.726;-2.108;2024-03-23T01:26:31;100351.66;;;3.88;100.00
28935;BME280;16044;52.726;-2.108;2024-03-23T01:28:57;100339.38;;;3.86;100.00
28935;BME280;16044;52.726;-2.108;2024-03-23T01:31:24;100334.03;;;3.86;100.00
28935;BME280;16044;52.726;-2.108;2024-03-23T01:33:53;100338.09;;;3.80;100.00
28935;BME280;16044;52.726;-2.108;2024-03-23T01:36:20;100337.78;;;3.74;100.00
28935;BME280;16044;52.726;-2.108;2024-03-23T01:38:46;100336.94;;;3.73;100.00
28935;BME280;16044;52.726;-2.108;2024-03-23T01:41:12;100335.22;;;3.72;100.00
28935;BME280;16044;52.726;-2.108;2024-03-23T01:43:39;100332.97;;;3.67;100.00
28935;BME280;16044;52.726;-2.108;2024-03-23T01:46:05;100333.94;;;3.66;100.00
28935;BME280;16044;52.726;-2.108;2024-03-23T01:48:32;100336.63;;;3.66;100.00
28935;BME280;16044;52.726;-2.108;2024-03-23T01:51:02;100332.25;;;3.65;100.00
28935;BME280;16044;52.726;-2.108;2024-03-23T01:53:30;100335.66;;;3.67;100.00
28935;BME280;16044;52.726;-2.108;2024-03-23T01:55:57;100335.66;;;3.67;100.00
28935;BME280;16044;52.726;-2.108;2024-03-23T01:58:23;100327.34;;;3.70;100.00
28935;BME280;16044;52.726;-2.108;2024-03-23T02:00:50;100322.69;;;3.73;100.00
28935;BME280;16044;52.726;-2.108;2024-03-23T02:03:23;100323.66;;;3.71;100.00
28935;BME280;16044;52.726;-2.108;2024-03-23T02:05:50;100321.69;;;3.74;100.00
28935;BME280;16044;52.726;-2.108;2024-03-23T02:08:21;100322.69;;;3.73;100.00
28935;BME280;16044;52.726;-2.108;2024-03-23T02:10:48;100323.41;;;3.75;100.00
28935;BME280;16044;52.726;-2.108;2024-03-23T02:13:15;100315.63;;;3.71;100.00
28935;BME280;16044;52.726;-2.108;2024-03-23T02:15:41;100316.06;;;3.77;100.00
28935;BME280;16044;52.726;-2.108;2024-03-23T02:18:08;100310.72;;;3.77;100.00
28935;BME280;16044;52.726;-2.108;2024-03-23T02:20:35;100302.94;;;3.74;100.00
28935;BME280;16044;52.726;-2.108;2024-03-23T02:23:04;100312.38;;;3.78;100.00
28935;BME280;16044;52.726;-2.108;2024-03-23T02:25:31;100301.97;;;3.75;100.00
28935;BME280;16044;52.726;-2.108;2024-03-23T02:27:58;100300.97;;;3.76;100.00
28935;BME280;16044;52.726;-2.108;2024-03-23T02:30:25;100300.97;;;3.76;100.00
28935;BME280;16044;52.726;-2.108;2024-03-23T02:32:52;100295.47;;;3.77;100.00
28935;BME280;16044;52.726;-2.108;2024-03-23T02:35:18;100302.53;;;3.78;100.00
28935;BME280;16044;52.726;-2.108;2024-03-23T02:37:46;100297.44;;;3.75;100.00
28935;BME280;16044;52.726;-2.108;2024-03-23T02:40:16;100292.91;;;3.76;100.00
28935;BME280;16044;52.726;-2.108;2024-03-23T02:42:43;100283.47;;;3.81;100.00
28935;BME280;16044;52.726;-2.108;2024-03-23T02:45:09;100276.28;;;3.82;100.00
28935;BME280;16044;52.726;-2.108;2024-03-23T02:47:36;100273.88;;;3.79;100.00
28935;BME280;16044;52.726;-2.108;2024-03-23T02:50:03;100272.47;;;3.84;100.00
28935;BME280;16044;52.726;-2.108;2024-03-23T02:52:30;100273.75;;;3.80;100.00
28935;BME280;16044;52.726;-2.108;2024-03-23T02:54:56;100273.75;;;3.80;100.00
28935;BME280;16044;52.726;-2.108;2024-03-23T02:57:26;100273.19;;;3.86;100.00
28935;BME280;16044;52.726;-2.108;2024-03-23T02:59:52;100272.75;;;3.81;100.00
28935;BME280;16044;52.726;-2.108;2024-03-23T03:02:19;100277.72;;;3.86;100.00
28935;BME280;16044;52.726;-2.108;2024-03-23T03:04:46;100268.22;;;3.82;100.00
28935;BME280;16044;52.726;-2.108;2024-03-23T03:07:13;100266.28;;;3.84;100.00
28935;BME280;16044;52.726;-2.108;2024-03-23T03:09:40;100259.66;;;3.88;100.00
28935;BME280;16044;52.726;-2.108;2024-03-23T03:12:07;100261.91;;;3.83;100.00
28935;BME280;16044;52.726;-2.108;2024-03-23T03:14:36;100259.66;;;3.88;100.00
28935;BME280;16044;52.726;-2.108;2024-03-23T03:17:03;100262.72;;;3.83;100.00
28935;BME280;16044;52.726;-2.108;2024-03-23T03:19:29;100260.19;;;3.82;100.00
28935;BME280;16044;52.726;-2.108;2024-03-23T03:21:56;100247.78;;;3.81;100.00
28935;BME280;16044;52.726;-2.108;2024-03-23T03:24:22;100249.75;;;3.79;100.00
28935;BME280;16044;52.726;-2.108;2024-03-23T03:26:49;100246.75;;;3.72;100.00
28935;BME280;16044;52.726;-2.108;2024-03-23T03:29:15;100238.16;;;3.68;100.00
28935;BME280;16044;52.726;-2.108;2024-03-23T03:31:44;100235.34;;;3.70;100.00
28935;BME280;16044;52.726;-2.108;2024-03-23T03:34:11;100232.78;;;3.68;100.00
28935;BME280;16044;52.726;-2.108;2024-03-23T03:36:37;100230.53;;;3.64;100.00
28935;BME280;16044;52.726;-2.108;2024-03-23T03:39:04;100229.69;;;3.63;100.00
28935;BME280;16044;52.726;-2.108;2024-03-23T03:41:31;100232.91;;;3.57;100.00
28935;BME280;16044;52.726;-2.108;2024-03-23T03:43:58;100221.78;;;3.62;100.00
28935;BME280;16044;52.726;-2.108;2024-03-23T03:46:25;100223.63;;;3.61;100.00
28935;BME280;16044;52.726;-2.108;2024-03-23T03:48:54;100215.03;;;3.58;100.00
28935;BME280;16044;52.726;-2.108;2024-03-23T03:51:21;100218.41;;;3.60;100.00
28935;BME280;16044;52.726;-2.108;2024-03-23T03:53:47;100199.91;;;3.57;100.00
28935;BME280;16044;52.726;-2.108;2024-03-23T03:56:14;100209.53;;;3.59;100.00
28935;BME280;16044;52.726;-2.108;2024-03-23T03:58:40;100204.31;;;3.58;100.00
28935;BME280;16044;52.726;-2.108;2024-03-23T04:01:06;100193.16;;;3.62;100.00
28935;BME280;16044;52.726;-2.108;2024-03-23T04:03:33;100199.50;;;3.61;100.00
28935;BME280;16044;52.726;-2.108;2024-03-23T04:06:03;100187.78;;;3.62;100.00
28935;BME280;16044;52.726;-2.108;2024-03-23T04:08:29;100197.38;;;3.55;100.00
28935;BME280;16044;52.726;-2.108;2024-03-23T04:10:56;100190.72;;;3.49;100.00
28935;BME280;16044;52.726;-2.108;2024-03-23T04:13:22;100192.84;;;3.46;100.00
28935;BME280;16044;52.726;-2.108;2024-03-23T04:15:49;100194.97;;;3.42;100.00
28935;BME280;16044;52.726;-2.108;2024-03-23T04:18:20;100182.53;;;3.41;100.00
28935;BME280;16044;52.726;-2.108;2024-03-23T04:20:46;100189.44;;;3.44;100.00
28935;BME280;16044;52.726;-2.108;2024-03-23T04:23:15;100190.44;;;3.43;100.00
28935;BME280;16044;52.726;-2.108;2024-03-23T04:25:42;100181.97;;;3.38;100.00
28935;BME280;16044;52.726;-2.108;2024-03-23T04:28:08;100187.47;;;3.36;100.00
28935;BME280;16044;52.726;-2.108;2024-03-23T04:30:35;100187.63;;;3.35;100.00
28935;BME280;16044;52.726;-2.108;2024-03-23T04:33:01;100192.97;;;3.35;100.00
28935;BME280;16044;52.726;-2.108;2024-03-23T04:35:27;100187.47;;;3.36;100.00
28935;BME280;16044;52.726;-2.108;2024-03-23T04:37:54;100196.38;;;3.37;100.00
28935;BME280;16044;52.726;-2.108;2024-03-23T04:40:24;100185.34;;;3.40;100.00
28935;BME280;16044;52.726;-2.108;2024-03-23T04:42:50;100185.78;;;3.45;100.00
28935;BME280;16044;52.726;-2.108;2024-03-23T04:45:17;100195.25;;;3.49;100.00
28935;BME280;16044;52.726;-2.108;2024-03-23T04:47:43;100188.63;;;3.53;100.00
28935;BME280;16044;52.726;-2.108;2024-03-23T04:50:10;100187.22;;;3.49;100.00
28935;BME280;16044;52.726;-2.108;2024-03-23T04:52:36;100200.03;;;3.55;100.00
28935;BME280;16044;52.726;-2.108;2024-03-23T04:55:04;100193.28;;;3.61;100.00
28935;BME280;16044;52.726;-2.108;2024-03-23T04:57:33;100185.81;;;3.64;100.00
28935;BME280;16044;52.726;-2.108;2024-03-23T05:00:00;100187.53;;;3.65;100.00
28935;BME280;16044;52.726;-2.108;2024-03-23T05:02:26;100187.66;;;3.64;100.00
28935;BME280;16044;52.726;-2.108;2024-03-23T05:04:53;100183.44;;;3.61;100.00
28935;BME280;16044;52.726;-2.108;2024-03-23T05:07:20;100171.00;;;3.60;100.00
28935;BME280;16044;52.726;-2.108;2024-03-23T05:09:46;100172.97;;;3.58;100.00
28935;BME280;16044;52.726;-2.108;2024-03-23T05:12:13;100166.59;;;3.49;100.00
28935;BME280;16044;52.726;-2.108;2024-03-23T05:14:42;100164.63;;;3.51;100.00
28935;BME280;16044;52.726;-2.108;2024-03-23T05:17:08;100153.22;;;3.49;100.00
28935;BME280;16044;52.726;-2.108;2024-03-23T05:19:35;100155.06;;;3.49;100.00
28935;BME280;16044;52.726;-2.108;2024-03-23T05:22:01;100151.41;;;3.50;100.00
28935;BME280;16044;52.726;-2.108;2024-03-23T05:24:28;100139.09;;;3.47;100.00
28935;BME280;16044;52.726;-2.108;2024-03-23T05:26:54;100142.09;;;3.44;100.00
28935;BME280;16044;52.726;-2.108;2024-03-23T05:29:21;100139.53;;;3.43;100.00
28935;BME280;16044;52.726;-2.108;2024-03-23T05:31:51;100142.63;;;3.38;100.00
28935;BME280;16044;52.726;-2.108;2024-03-23T05:34:18;100139.66;;;3.31;100.00
28935;BME280;16044;52.726;-2.108;2024-03-23T05:36:44;100135.72;;;3.36;100.00
28935;BME280;16044;52.726;-2.108;2024-03-23T05:39:11;100134.03;;;3.35;100.00
28935;BME280;16044;52.726;-2.108;2024-03-23T05:41:37;100139.41;;;3.35;100.00
28935;BME280;16044;52.726;-2.108;2024-03-23T05:44:04;100130.94;;;3.29;100.00
28935;BME280;16044;52.726;-2.108;2024-03-23T05:46:30;100129.91;;;3.30;100.00
28935;BME280;16044;52.726;-2.108;2024-03-23T05:49:01;100118.09;;;3.33;100.00
28935;BME280;16044;52.726;-2.108;2024-03-23T05:51:28;100126.28;;;3.31;100.00
28935;BME280;16044;52.726;-2.108;2024-03-23T05:53:54;100126.72;;;3.37;100.00
28935;BME280;16044;52.726;-2.108;2024-03-23T05:56:21;100122.47;;;3.34;100.00
28935;BME280;16044;52.726;-2.108;2024-03-23T05:58:47;100135.44;;;3.39;100.00
28935;BME280;16044;52.726;-2.108;2024-03-23T06:01:14;100131.19;;;3.36;100.00
28935;BME280;16044;52.726;-2.108;2024-03-23T06:03:41;100134.75;;;3.37;100.00
28935;BME280;16044;52.726;-2.108;2024-03-23T06:06:10;100135.16;;;3.42;100.00
28935;BME280;16044;52.726;-2.108;2024-03-23T06:08:36;100129.78;;;3.42;100.00
28935;BME280;16044;52.726;-2.108;2024-03-23T06:11:03;100131.38;;;3.44;100.00
28935;BME280;16044;52.726;-2.108;2024-03-23T06:13:30;100144.19;;;3.41;100.00
28935;BME280;16044;52.726;-2.108;2024-03-23T06:15:56;100126.16;;;3.43;100.00
28935;BME280;16044;52.726;-2.108;2024-03-23T06:18:23;100115.13;;;3.46;100.00
28935;BME280;16044;52.726;-2.108;2024-03-23T06:20:49;100122.63;;;3.52;100.00
28935;BME280;16044;52.726;-2.108;2024-03-23T06:23:19;100120.78;;;3.62;100.00
28935;BME280;16044;52.726;-2.108;2024-03-23T06:25:45;100129.53;;;3.64;100.00
28935;BME280;16044;52.726;-2.108;2024-03-23T06:28:12;100130.22;;;3.66;100.00
28935;BME280;16044;52.726;-2.108;2024-03-23T06:30:39;100129.00;;;3.70;100.00
28935;BME280;16044;52.726;-2.108;2024-03-23T06:33:05;100127.00;;;3.73;100.00
28935;BME280;16044;52.726;-2.108;2024-03-23T06:35:32;100136.72;;;3.74;100.00
28935;BME280;16044;52.726;-2.108;2024-03-23T06:37:58;100128.69;;;3.74;100.00
28935;BME280;16044;52.726;-2.108;2024-03-23T06:40:27;100125.28;;;3.81;100.00
28935;BME280;16044;52.726;-2.108;2024-03-23T06:42:54;100125.59;;;3.88;100.00
28935;BME280;16044;52.726;-2.108;2024-03-23T06:45:20;100127.13;;;3.90;100.00
28935;BME280;16044;52.726;-2.108;2024-03-23T06:47:47;100119.66;;;3.94;100.00
28935;BME280;16044;52.726;-2.108;2024-03-23T06:50:13;100113.44;;;4.03;100.00
28935;BME280;16044;52.726;-2.108;2024-03-23T06:52:40;100118.22;;;4.09;100.00
28935;BME280;16044;52.726;-2.108;2024-03-23T06:55:07;100112.72;;;4.11;100.00
28935;BME280;16044;52.726;-2.108;2024-03-23T06:57:37;100112.25;;;4.16;100.00
28935;BME280;16044;52.726;-2.108;2024-03-23T07:00:04;100102.53;;;4.15;100.00
28935;BME280;16044;52.726;-2.108;2024-03-23T07:02:31;100095.88;;;4.19;100.00
28935;BME280;16044;52.726;-2.108;2024-03-23T07:04:58;100107.72;;;4.26;100.00
28935;BME280;16044;52.726;-2.108;2024-03-23T07:07:24;100109.41;;;4.27;100.00
28935;BME280;16044;52.726;-2.108;2024-03-23T07:09:51;100109.13;;;4.30;100.00
28935;BME280;16044;52.726;-2.108;2024-03-23T07:12:18;100103.63;;;4.32;100.00
28935;BME280;16044;52.726;-2.108;2024-03-23T07:14:47;100098.91;;;4.43;100.00
28935;BME280;16044;52.726;-2.108;2024-03-23T07:17:13;100092.72;;;4.43;100.00
28935;BME280;16044;52.726;-2.108;2024-03-23T07:19:40;100104.28;;;4.43;100.00
28935;BME280;16044;52.726;-2.108;2024-03-23T07:22:06;100098.03;;;4.53;100.00
28935;BME280;16044;52.726;-2.108;2024-03-23T07:24:33;100106.78;;;4.55;100.00
28935;BME280;16044;52.726;-2.108;2024-03-23T07:26:59;100102.81;;;4.59;100.00
28935;BME280;16044;52.726;-2.108;2024-03-23T07:29:26;100093.78;;;4.60;100.00
28935;BME280;16044;52.726;-2.108;2024-03-23T07:31:55;100108.31;;;4.67;100.00
28935;BME280;16044;52.726;-2.108;2024-03-23T07:34:21;100088.66;;;4.66;100.00
28935;BME280;16044;52.726;-2.108;2024-03-23T07:36:48;100095.56;;;4.69;100.00
28935;BME280;16044;52.726;-2.108;2024-03-23T07:39:14;100085.69;;;4.97;100.00
28935;BME280;16044;52.726;-2.108;2024-03-23T07:41:44;100080.72;;;5.20;100.00
28935;BME280;16044;52.726;-2.108;2024-03-23T07:44:11;100070.59;;;5.50;100.00
28935;BME280;16044;52.726;-2.108;2024-03-23T07:46:37;100074.63;;;5.72;100.00
28935;BME280;16044;52.726;-2.108;2024-03-23T07:49:06;100077.84;;;5.94;100.00
28935;BME280;16044;52.726;-2.108;2024-03-23T07:51:33;100069.44;;;6.15;100.00
28935;BME280;16044;52.726;-2.108;2024-03-23T07:53:59;100069.53;;;6.31;100.00
28935;BME280;16044;52.726;-2.108;2024-03-23T07:56:26;100063.41;;;6.47;100.00
28935;BME280;16044;52.726;-2.108;2024-03-23T07:58:52;100062.28;;;6.58;100.00
28935;BME280;16044;52.726;-2.108;2024-03-23T08:01:19;100063.53;;;6.80;100.00
28935;BME280;16044;52.726;-2.108;2024-03-23T08:03:45;100055.94;;;6.75;100.00
28935;BME280;16044;52.726;-2.108;2024-03-23T08:06:16;100061.47;;;6.66;100.00
28935;BME280;16044;52.726;-2.108;2024-03-23T08:08:45;100064.31;;;6.64;100.00
28935;BME280;16044;52.726;-2.108;2024-03-23T08:11:12;100065.25;;;6.89;100.00
28935;BME280;16044;52.726;-2.108;2024-03-23T08:13:40;100053.34;;;7.00;100.00
28935;BME280;16044;52.726;-2.108;2024-03-23T08:16:08;100045.25;;;7.08;100.00
28935;BME280;16044;52.726;-2.108;2024-03-23T08:18:34;100052.38;;;7.26;100.00
28935;BME280;16044;52.726;-2.108;2024-03-23T08:21:02;100060.44;;;7.09;100.00
28935;BME280;16044;52.726;-2.108;2024-03-23T08:23:34;100065.84;;;7.17;100.00
28935;BME280;16044;52.726;-2.108;2024-03-23T08:26:02;100059.56;;;7.00;100.00
28935;BME280;16044;52.726;-2.108;2024-03-23T08:28:29;100068.78;;;6.90;100.00
28935;BME280;16044;52.726;-2.108;2024-03-23T08:30:56;100068.63;;;6.91;100.00
28935;BME280;16044;52.726;-2.108;2024-03-23T08:33:23;100055.78;;;6.77;100.00
28935;BME280;16044;52.726;-2.108;2024-03-23T08:35:54;100059.31;;;6.77;100.00
28935;BME280;16044;52.726;-2.108;2024-03-23T08:38:21;100049.03;;;6.73;100.00
28935;BME280;16044;52.726;-2.108;2024-03-23T08:40:56;100048.56;;;6.86;100.00
28935;BME280;16044;52.726;-2.108;2024-03-23T08:43:23;100051.69;;;7.07;100.00
28935;BME280;16044;52.726;-2.108;2024-03-23T08:45:49;100042.91;;;7.13;100.00
28935;BME280;16044;52.726;-2.108;2024-03-23T08:48:16;100037.56;;;7.38;100.00
28935;BME280;16044;52.726;-2.108;2024-03-23T08:50:42;100042.63;;;7.57;98.56
28935;BME280;16044;52.726;-2.108;2024-03-23T08:53:09;100041.13;;;7.71;98.06
28935;BME280;16044;52.726;-2.108;2024-03-23T08:55:35;100034.03;;;7.87;97.44
28935;BME280;16044;52.726;-2.108;2024-03-23T08:58:04;100019.31;;;7.97;95.49
28935;BME280;16044;52.726;-2.108;2024-03-23T09:00:31;100033.16;;;8.03;93.88
28935;BME280;16044;52.726;-2.108;2024-03-23T09:02:58;100027.09;;;8.00;91.16
28935;BME280;16044;52.726;-2.108;2024-03-23T09:05:24;100026.25;;;7.92;92.33
28935;BME280;16044;52.726;-2.108;2024-03-23T09:07:51;100032.66;;;7.99;92.22
28935;BME280;16044;52.726;-2.108;2024-03-23T09:10:17;100031.16;;;7.88;92.47
28935;BME280;16044;52.726;-2.108;2024-03-23T09:12:44;100033.00;;;7.96;90.77
28935;BME280;16044;52.726;-2.108;2024-03-23T09:15:13;100024.41;;;7.92;92.40
28935;BME280;16044;52.726;-2.108;2024-03-23T09:17:39;100031.31;;;7.95;92.14
28935;BME280;16044;52.726;-2.108;2024-03-23T09:20:07;100026.44;;;7.90;92.00
28935;BME280;16044;52.726;-2.108;2024-03-23T09:22:34;100018.16;;;7.84;91.36
28935;BME280;16044;52.726;-2.108;2024-03-23T09:25:01;100020.50;;;7.95;90.73
28935;BME280;16044;52.726;-2.108;2024-03-23T09:27:27;100016.81;;;7.88;91.79
28935;BME280;16044;52.726;-2.108;2024-03-23T09:29:54;100030.81;;;7.91;92.95
28935;BME280;16044;52.726;-2.108;2024-03-23T09:32:23;100028.97;;;7.84;92.37
28935;BME280;16044;52.726;-2.108;2024-03-23T09:34:49;100016.50;;;7.66;94.06
28935;BME280;16044;52.726;-2.108;2024-03-23T09:37:16;100023.41;;;7.60;98.28
28935;BME280;16044;52.726;-2.108;2024-03-23T09:39:42;100027.47;;;7.40;100.00
28935;BME280;16044;52.726;-2.108;2024-03-23T09:42:08;100027.44;;;7.48;100.00
28935;BME280;16044;52.726;-2.108;2024-03-23T09:44:35;100024.44;;;7.51;100.00
28935;BME280;16044;52.726;-2.108;2024-03-23T09:47:02;100022.41;;;7.53;100.00
28935;BME280;16044;52.726;-2.108;2024-03-23T09:49:32;100015.47;;;7.42;100.00
28935;BME280;16044;52.726;-2.108;2024-03-23T09:52:00;100024.44;;;7.51;100.00
28935;BME280;16044;52.726;-2.108;2024-03-23T09:54:27;100019.38;;;7.40;100.00
28935;BME280;16044;52.726;-2.108;2024-03-23T09:56:54;100018.34;;;7.57;100.00
28935;BME280;16044;52.726;-2.108;2024-03-23T09:59:20;100008.91;;;7.61;100.00
28935;BME280;16044;52.726;-2.108;2024-03-23T10:01:47;100021.03;;;7.82;100.00
28935;BME280;16044;52.726;-2.108;2024-03-23T10:04:40;100006.53;;;7.83;100.00
28935;BME280;16044;52.726;-2.108;2024-03-23T10:07:14;100002.16;;;7.90;100.00
28935;BME280;16044;52.726;-2.108;2024-03-23T10:09:41;99999.22;;;8.08;100.00
28935;BME280;16044;52.726;-2.108;2024-03-23T10:12:09;99990.75;;;8.19;98.57
28935;BME280;16044;52.726;-2.108;2024-03-23T10:14:36;99983.78;;;8.33;97.61
28935;BME280;16044;52.726;-2.108;2024-03-23T10:17:15;99988.84;;;8.45;96.23
28935;BME280;16044;52.726;-2.108;2024-03-23T10:19:46;99992.06;;;8.40;94.20
28935;BME280;16044;52.726;-2.108;2024-03-23T10:22:18;99987.28;;;8.58;94.84
28935;BME280;16044;52.726;-2.108;2024-03-23T10:24:45;100001.63;;;8.59;93.74
28935;BME280;16044;52.726;-2.108;2024-03-23T10:27:15;99981.50;;;8.70;95.05
28935;BME280;16044;52.726;-2.108;2024-03-23T10:29:42;99990.09;;;8.65;97.53
28935;BME280;16044;52.726;-2.108;2024-03-23T10:32:09;99994.84;;;8.63;98.38
28935;BME280;16044;52.726;-2.108;2024-03-23T10:34:36;99994.75;;;8.48;100.00
28935;BME280;16044;52.726;-2.108;2024-03-23T10:37:06;99981.28;;;8.24;100.00
28935;BME280;16044;52.726;-2.108;2024-03-23T10:39:34;99986.94;;;7.97;100.00
28935;BME280;16044;52.726;-2.108;2024-03-23T10:42:02;99979.56;;;7.75;100.00
28935;BME280;16044;52.726;-2.108;2024-03-23T10:44:30;99978.91;;;7.65;100.00
28935;BME280;16044;52.726;-2.108;2024-03-23T10:46:58;99974.38;;;7.57;100.00
28935;BME280;16044;52.726;-2.108;2024-03-23T10:49:28;99976.22;;;7.56;100.00
28935;BME280;16044;52.726;-2.108;2024-03-23T10:51:57;99960.38;;;7.53;100.00
28935;BME280;16044;52.726;-2.108;2024-03-23T10:54:27;99965.94;;;7.68;100.00
28935;BME280;16044;52.726;-2.108;2024-03-23T10:56:57;99961.00;;;7.80;100.00
28935;BME280;16044;52.726;-2.108;2024-03-23T10:59:37;99966.22;;;7.90;100.00
28935;BME280;16044;52.726;-2.108;2024-03-23T11:02:05;99965.34;;;7.97;100.00
28935;BME280;16044;52.726;-2.108;2024-03-23T11:04:33;99966.84;;;8.08;100.00
28935;BME280;16044;52.726;-2.108;2024-03-23T11:07:00;99972.38;;;8.23;100.00
28935;BME280;16044;52.726;-2.108;2024-03-23T11:09:42;99967.97;;;8.22;100.00
28935;BME280;16044;52.726;-2.108;2024-03-23T11:12:29;99964.59;;;8.28;100.00
28935;BME280;16044;52.726;-2.108;2024-03-23T11:15:04;99952.25;;;8.34;97.01
28935;BME280;16044;52.726;-2.108;2024-03-23T11:17:31;99959.84;;;8.30;93.28
28935;BME280;16044;52.726;-2.108;2024-03-23T11:19:58;99955.94;;;8.33;95.70
28935;BME280;16044;52.726;-2.108;2024-03-23T11:22:39;99949.44;;;8.19;96.21
28935;BME280;16044;52.726;-2.108;2024-03-23T11:25:19;99950.59;;;8.25;98.71
28935;BME280;16044;52.726;-2.108;2024-03-23T11:27:48;99951.81;;;8.14;100.00
28935;BME280;16044;52.726;-2.108;2024-03-23T11:30:16;99946.09;;;8.09;100.00
28935;BME280;16044;52.726;-2.108;2024-03-23T11:32:44;99953.00;;;8.03;100.00
28935;BME280;16044;52.726;-2.108;2024-03-23T11:35:27;99945.13;;;8.02;100.00
28935;BME280;16044;52.726;-2.108;2024-03-23T11:38:05;99948.16;;;7.98;100.00
28935;BME280;16044;52.726;-2.108;2024-03-23T11:40:37;99949.53;;;7.94;100.00
28935;BME280;16044;52.726;-2.108;2024-03-23T11:43:05;99940.69;;;8.09;100.00
28935;BME280;16044;52.726;-2.108;2024-03-23T11:45:37;99949.06;;;8.22;99.84
28935;BME280;16044;52.726;-2.108;2024-03-23T11:48:06;99946.53;;;8.29;100.00
28935;BME280;16044;52.726;-2.108;2024-03-23T11:50:36;99928.91;;;8.41;100.00
28935;BME280;16044;52.726;-2.108;2024-03-23T11:53:12;99932.72;;;8.63;100.00
28935;BME280;16044;52.726;-2.108;2024-03-23T11:55:46;99914.28;;;8.90;100.00
28935;BME280;16044;52.726;-2.108;2024-03-23T11:58:14;99920.41;;;9.07;95.32
28935;BME280;16044;52.726;-2.108;2024-03-23T12:00:48;99917.47;;;9.16;89.40
28935;BME280;16044;52.726;-2.108;2024-03-23T12:03:17;99907.91;;;9.29;91.09
28935;BME280;16044;52.726;-2.108;2024-03-23T12:05:48;99910.34;;;9.39;88.03
28935;BME280;16044;52.726;-2.108;2024-03-23T12:08:23;99923.44;;;9.50;86.38
28935;BME280;16044;52.726;-2.108;2024-03-23T12:11:04;99926.31;;;9.48;89.32
28935;BME280;16044;52.726;-2.108;2024-03-23T12:13:32;99930.50;;;9.36;90.54
28935;BME280;16044;52.726;-2.108;2024-03-23T12:16:09;99935.03;;;9.21;88.36
28935;BME280;16044;52.726;-2.108;2024-03-23T12:18:36;99933.94;;;9.07;90.42
28935;BME280;16044;52.726;-2.108;2024-03-23T12:21:04;99923.94;;;8.92;91.22
28935;BME280;16044;52.726;-2.108;2024-03-23T12:23:30;99917.59;;;8.77;93.53
28935;BME280;16044;52.726;-2.108;2024-03-23T12:25:59;99916.44;;;8.71;94.31
28935;BME280;16044;52.726;-2.108;2024-03-23T12:28:26;99917.56;;;8.85;93.71
28935;BME280;16044;52.726;-2.108;2024-03-23T12:30:53;99909.63;;;8.84;91.74
28935;BME280;16044;52.726;-2.108;2024-03-23T12:33:20;99925.03;;;8.75;89.67
28935;BME280;16044;52.726;-2.108;2024-03-23T12:35:47;99924.50;;;8.56;78.80
28935;BME280;16044;52.726;-2.108;2024-03-23T12:38:13;99924.72;;;8.38;78.83
28935;BME280;16044;52.726;-2.108;2024-03-23T12:40:40;99929.44;;;8.36;78.71
28935;BME280;16044;52.726;-2.108;2024-03-23T12:43:09;99916.47;;;8.32;81.43
28935;BME280;16044;52.726;-2.108;2024-03-23T12:45:35;99916.13;;;8.43;82.05
28935;BME280;16044;52.726;-2.108;2024-03-23T12:48:02;99914.19;;;8.52;81.69
28935;BME280;16044;52.726;-2.108;2024-03-23T12:50:29;99908.31;;;8.71;81.67
28935;BME280;16044;52.726;-2.108;2024-03-23T12:52:56;99909.19;;;8.95;82.21
28935;BME280;16044;52.726;-2.108;2024-03-23T12:55:22;99905.81;;;9.16;83.51
28935;BME280;16044;52.726;-2.108;2024-03-23T12:57:48;99914.31;;;9.28;82.29
28935;BME280;16044;52.726;-2.108;2024-03-23T13:00:18;99908.91;;;9.28;83.01
28935;BME280;16044;52.726;-2.108;2024-03-23T13:02:44;99916.16;;;9.12;85.11
28935;BME280;16044;52.726;-2.108;2024-03-23T13:05:11;99911.13;;;9.09;85.25
28935;BME280;16044;52.726;-2.108;2024-03-23T13:07:37;99912.97;;;8.86;78.01
28935;BME280;16044;52.726;-2.108;2024-03-23T13:10:05;99913.72;;;8.71;80.11
28935;BME280;16044;52.726;-2.108;2024-03-23T13:12:32;99902.94;;;8.71;76.38
28935;BME280;16044;52.726;-2.108;2024-03-23T13:14:59;99907.91;;;8.83;70.79
28935;BME280;16044;52.726;-2.108;2024-03-23T13:17:28;99920.72;;;8.89;69.97
28935;BME280;16044;52.726;-2.108;2024-03-23T13:19:55;99916.00;;;8.91;66.18
28935;BME280;16044;52.726;-2.108;2024-03-23T13:22:22;99927.81;;;8.90;66.22
28935;BME280;16044;52.726;-2.108;2024-03-23T13:24:48;99920.72;;;8.89;62.44
28935;BME280;16044;52.726;-2.108;2024-03-23T13:27:14;99917.00;;;8.90;62.28
28935;BME280;16044;52.726;-2.108;2024-03-23T13:29:41;99912.56;;;8.97;60.40
28935;BME280;16044;52.726;-2.108;2024-03-23T13:32:07;99923.59;;;9.10;61.96
28935;BME280;16044;52.726;-2.108;2024-03-23T13:34:36;99926.97;;;9.12;65.34
28935;BME280;16044;52.726;-2.108;2024-03-23T13:37:04;99922.53;;;9.20;63.20
28935;BME280;16044;52.726;-2.108;2024-03-23T13:39:31;99918.31;;;9.17;63.16
28935;BME280;16044;52.726;-2.108;2024-03-23T13:41:57;99904.75;;;9.02;63.71